createdAt,value
2022-07-31T00:00:20.516Z,50.96
2022-07-31T00:02:48.359Z,51.38
2022-07-31T00:05:16.014Z,51.30
2022-07-31T00:07:44.976Z,51.24
2022-07-31T00:10:12.734Z,51.51
2022-07-31T00:12:40.426Z,51.93
2022-07-31T00:15:10.849Z,51.86
2022-07-31T00:17:39.573Z,52.16
2022-07-31T00:20:08.829Z,52.29
2022-07-31T00:22:36.658Z,52.58
2022-07-31T00:25:06.688Z,52.32
2022-07-31T00:27:34.343Z,52.90
2022-07-31T00:30:02.060Z,52.52
2022-07-31T00:32:29.709Z,52.63
2022-07-31T00:34:57.369Z,52.58
2022-07-31T00:37:25.397Z,52.56
2022-07-31T00:39:54.361Z,52.88
2022-07-31T00:42:25.014Z,53.23
2022-07-31T00:44:53.912Z,53.01
2022-07-31T00:47:23.845Z,53.30
2022-07-31T00:49:53.186Z,53.78
2022-07-31T00:52:20.983Z,54.00
2022-07-31T00:54:48.910Z,54.66
2022-07-31T00:57:16.592Z,54.35
2022-07-31T00:59:45.666Z,54.46
2022-07-31T01:02:13.371Z,55.34
2022-07-31T01:04:41.849Z,55.64
2022-07-31T01:07:12.326Z,55.91
2022-07-31T01:09:40.006Z,56.50
2022-07-31T01:12:14.101Z,56.47
2022-07-31T01:14:46.692Z,56.76
2022-07-31T01:17:18.042Z,57.29
2022-07-31T01:19:46.845Z,57.57
2022-07-31T01:22:33.851Z,58.27
2022-07-31T01:25:10.752Z,58.93
2022-07-31T01:28:00.501Z,59.27
2022-07-31T01:30:34.109Z,60.06
2022-07-31T01:33:20.764Z,60.19
2022-07-31T01:35:59.817Z,60.44
2022-07-31T01:38:33.800Z,60.97
2022-07-31T01:41:05.594Z,61.77
2022-07-31T01:43:37.922Z,62.29
2022-07-31T01:46:11.235Z,62.30
2022-07-31T01:48:40.094Z,62.48
2022-07-31T01:51:09.900Z,62.85
2022-07-31T01:53:40.009Z,63.28
2022-07-31T01:56:08.843Z,64.08
2022-07-31T01:58:39.290Z,64.33
2022-07-31T02:01:11.411Z,64.80
2022-07-31T02:03:43.614Z,65.21
2022-07-31T02:06:15.948Z,65.58
2022-07-31T02:08:46.263Z,66.29
2022-07-31T02:11:15.969Z,66.14
2022-07-31T02:13:45.280Z,66.20
2022-07-31T02:16:15.787Z,66.68
2022-07-31T02:18:44.006Z,67.24
2022-07-31T02:21:11.700Z,67.40
2022-07-31T02:23:39.370Z,68.07
2022-07-31T02:26:08.583Z,68.66
2022-07-31T02:28:38.126Z,68.71
2022-07-31T02:31:10.203Z,69.05
2022-07-31T02:33:40.977Z,69.36
2022-07-31T02:36:11.559Z,69.60
2022-07-31T02:38:41.564Z,70.06
2022-07-31T02:41:12.654Z,70.21
2022-07-31T02:43:40.743Z,69.99
2022-07-31T02:46:10.098Z,70.28
2022-07-31T02:48:40.567Z,70.44
2022-07-31T02:51:09.201Z,70.65
2022-07-31T02:53:37.822Z,70.34
2022-07-31T02:56:09.219Z,71.08
2022-07-31T02:58:42.062Z,70.75
2022-07-31T03:01:10.716Z,71.31
2022-07-31T03:03:39.791Z,71.40
2022-07-31T03:06:07.637Z,71.24
2022-07-31T03:08:36.272Z,70.90
2022-07-31T03:11:04.423Z,71.62
2022-07-31T03:13:34.900Z,71.38
2022-07-31T03:16:04.239Z,71.54
2022-07-31T03:18:32.589Z,71.84
2022-07-31T03:21:02.488Z,72.22
2022-07-31T03:23:36.278Z,72.32
2022-07-31T03:26:05.630Z,72.31
2022-07-31T03:28:35.856Z,72.59
2022-07-31T03:31:03.967Z,72.77
2022-07-31T03:33:31.907Z,72.51
2022-07-31T03:36:00.999Z,72.59
2022-07-31T03:38:41.564Z,72.77
2022-07-31T03:41:11.070Z,72.23
2022-07-31T03:43:47.399Z,72.52
2022-07-31T03:46:18.175Z,72.43
2022-07-31T03:48:47.703Z,72.69
2022-07-31T03:51:16.886Z,72.29
2022-07-31T03:53:45.099Z,72.38
2022-07-31T03:56:14.019Z,72.70
2022-07-31T03:58:41.978Z,72.75
2022-07-31T04:01:13.358Z,72.30
2022-07-31T04:03:41.296Z,72.74
2022-07-31T04:06:09.085Z,72.78
2022-07-31T04:08:38.047Z,72.78
2022-07-31T04:11:05.724Z,72.62
2022-07-31T04:13:33.371Z,72.63
2022-07-31T04:16:01.017Z,72.69
2022-07-31T04:18:29.004Z,72.90
2022-07-31T04:20:56.688Z,72.99
2022-07-31T04:23:24.276Z,72.91
2022-07-31T04:26:01.543Z,73.13
2022-07-31T04:28:29.291Z,72.44
2022-07-31T04:30:57.457Z,71.88
2022-07-31T04:33:25.251Z,71.88
2022-07-31T04:35:53.388Z,72.29
2022-07-31T04:38:21.726Z,71.78
2022-07-31T04:40:50.277Z,71.40
2022-07-31T04:43:19.579Z,71.65
2022-07-31T04:45:47.298Z,71.58
2022-07-31T04:48:14.988Z,72.35
2022-07-31T04:50:42.693Z,72.35
2022-07-31T04:53:10.395Z,72.16
2022-07-31T04:55:38.473Z,72.07
2022-07-31T04:58:06.491Z,72.61
2022-07-31T05:00:35.456Z,71.79
2022-07-31T05:03:03.078Z,72.10
2022-07-31T05:05:30.793Z,71.72
2022-07-31T05:07:58.877Z,71.66
2022-07-31T05:10:46.423Z,71.75
2022-07-31T05:13:14.141Z,71.64
2022-07-31T05:15:45.937Z,70.99
2022-07-31T05:18:13.656Z,71.11
2022-07-31T05:20:41.313Z,71.07
2022-07-31T05:23:08.967Z,71.38
2022-07-31T05:25:36.682Z,71.13
2022-07-31T05:28:09.555Z,70.90
2022-07-31T05:30:37.559Z,70.63
2022-07-31T05:33:06.899Z,70.44
2022-07-31T05:35:34.615Z,70.49
2022-07-31T05:38:02.354Z,70.65
2022-07-31T05:40:30.132Z,70.58
2022-07-31T05:42:57.755Z,70.29
2022-07-31T05:45:25.423Z,69.91
2022-07-31T05:47:53.268Z,68.91
2022-07-31T05:50:23.206Z,68.11
2022-07-31T05:52:51.084Z,68.26
2022-07-31T05:55:18.801Z,68.38
2022-07-31T05:57:46.458Z,68.40
2022-07-31T06:00:16.317Z,67.90
2022-07-31T06:02:45.571Z,67.50
2022-07-31T06:05:13.290Z,67.20
2022-07-31T06:07:51.223Z,67.17
2022-07-31T06:10:20.092Z,66.59
2022-07-31T06:12:47.777Z,65.88
2022-07-31T06:15:15.750Z,65.45
2022-07-31T06:17:44.946Z,65.25
2022-07-31T06:20:13.955Z,64.50
2022-07-31T06:22:44.111Z,64.30
2022-07-31T06:25:13.273Z,64.28
2022-07-31T06:27:42.594Z,64.21
2022-07-31T06:30:11.987Z,64.41
2022-07-31T06:32:39.807Z,63.33
2022-07-31T06:35:08.993Z,63.29
2022-07-31T06:37:36.698Z,63.56
2022-07-31T06:40:06.823Z,62.69
2022-07-31T06:42:34.712Z,61.93
2022-07-31T06:45:02.430Z,60.63
2022-07-31T06:47:30.143Z,59.91
2022-07-31T06:49:57.838Z,58.71
2022-07-31T06:52:25.479Z,57.57
2022-07-31T06:54:53.183Z,56.30
2022-07-31T06:57:22.571Z,54.31
2022-07-31T06:59:50.229Z,51.92
2022-07-31T07:02:17.962Z,49.67
2022-07-31T07:04:58.501Z,48.05
2022-07-31T07:07:35.298Z,48.13
2022-07-31T07:10:02.971Z,47.28
2022-07-31T07:12:31.973Z,45.26
2022-07-31T07:14:59.656Z,44.52
2022-07-31T07:17:29.555Z,43.09
2022-07-31T07:19:57.767Z,43.82
2022-07-31T07:22:31.589Z,44.67
2022-07-31T07:25:00.883Z,44.72
2022-07-31T07:27:28.544Z,44.39
2022-07-31T07:29:57.983Z,44.56
2022-07-31T07:32:25.635Z,44.78
2022-07-31T07:34:59.885Z,44.26
2022-07-31T07:37:28.688Z,44.24
2022-07-31T07:39:56.742Z,43.65
2022-07-31T07:42:24.436Z,43.56
2022-07-31T07:44:52.111Z,41.35
2022-07-31T07:47:21.103Z,39.81
2022-07-31T07:49:48.742Z,38.25
2022-07-31T07:52:16.610Z,36.78
2022-07-31T07:54:44.408Z,35.84
2022-07-31T07:57:15.929Z,35.40
2022-07-31T07:59:43.829Z,35.16
2022-07-31T08:02:12.284Z,36.12
2022-07-31T08:04:45.835Z,36.30
2022-07-31T08:07:15.305Z,36.18
2022-07-31T08:09:42.908Z,37.33
2022-07-31T08:12:10.736Z,36.90
2022-07-31T08:14:38.365Z,37.92
2022-07-31T08:17:06.441Z,38.15
2022-07-31T08:19:34.206Z,38.48
2022-07-31T08:22:03.482Z,38.08
2022-07-31T08:24:31.388Z,37.38
2022-07-31T08:27:16.907Z,37.54
2022-07-31T08:29:49.280Z,36.15
2022-07-31T08:32:17.976Z,36.52
2022-07-31T08:34:45.765Z,35.94
2022-07-31T08:37:51.184Z,34.81
2022-07-31T08:40:02.572Z,34.29
2022-07-31T08:42:30.701Z,35.67
2022-07-31T08:44:58.349Z,36.72
2022-07-31T08:47:27.205Z,36.21
2022-07-31T08:49:56.651Z,34.91
2022-07-31T08:52:26.676Z,33.93
2022-07-31T08:54:55.474Z,34.97
2022-07-31T08:57:23.519Z,34.20
2022-07-31T08:59:52.603Z,34.61
2022-07-31T09:02:20.680Z,34.30
2022-07-31T09:04:52.294Z,34.33
2022-07-31T09:07:20.530Z,34.30
2022-07-31T09:09:51.478Z,33.65
2022-07-31T09:12:33.483Z,33.32
2022-07-31T09:15:01.948Z,32.89
2022-07-31T09:17:35.587Z,34.00
2022-07-31T09:20:05.897Z,33.79
2022-07-31T09:22:33.906Z,34.08
2022-07-31T09:25:12.340Z,34.34
2022-07-31T09:27:41.223Z,34.46
2022-07-31T09:30:10.312Z,35.78
2022-07-31T09:32:38.000Z,35.75
2022-07-31T09:35:10.680Z,35.73
2022-07-31T09:37:39.179Z,33.64
2022-07-31T09:40:10.252Z,33.32
2022-07-31T09:42:45.615Z,33.33
2022-07-31T09:45:21.162Z,32.34
2022-07-31T09:48:02.958Z,31.07
2022-07-31T09:50:30.816Z,30.37
2022-07-31T09:53:01.009Z,30.08
2022-07-31T09:55:31.080Z,30.25
2022-07-31T09:58:00.309Z,30.70
2022-07-31T10:00:28.790Z,31.25
2022-07-31T10:02:57.520Z,31.27
2022-07-31T10:05:27.033Z,30.48
2022-07-31T10:07:57.211Z,30.28
2022-07-31T10:10:25.498Z,30.67
2022-07-31T10:12:57.068Z,29.65
2022-07-31T10:15:26.960Z,29.67
2022-07-31T10:17:56.335Z,29.65
2022-07-31T10:20:26.300Z,29.78
2022-07-31T10:22:57.617Z,29.89
2022-07-31T10:25:26.648Z,29.05
2022-07-31T10:27:57.278Z,29.44
2022-07-31T10:30:28.138Z,28.75
2022-07-31T10:32:58.762Z,28.91
2022-07-31T10:35:27.156Z,29.67
2022-07-31T10:37:59.841Z,29.47
2022-07-31T10:40:35.012Z,28.82
2022-07-31T10:43:19.923Z,28.15
2022-07-31T10:45:49.283Z,28.68
2022-07-31T10:48:17.782Z,28.32
2022-07-31T10:50:46.060Z,27.67
2022-07-31T10:53:18.364Z,28.28
2022-07-31T10:55:46.375Z,28.27
2022-07-31T10:58:17.070Z,29.00
2022-07-31T11:00:45.505Z,28.61
2022-07-31T11:03:15.148Z,28.42
2022-07-31T11:06:01.614Z,28.25
2022-07-31T11:08:41.083Z,27.82
2022-07-31T11:11:08.878Z,26.94
2022-07-31T11:13:49.043Z,26.90
2022-07-31T11:16:17.347Z,27.48
2022-07-31T11:18:47.455Z,27.09
2022-07-31T11:21:37.676Z,27.28
2022-07-31T11:24:13.407Z,27.32
2022-07-31T11:26:44.294Z,28.04
2022-07-31T11:30:00.379Z,27.02
2022-07-31T11:32:01.893Z,27.19
2022-07-31T11:34:29.532Z,27.27
2022-07-31T11:36:57.379Z,28.03
2022-07-31T11:39:36.454Z,27.93
2022-07-31T11:42:07.336Z,28.06
2022-07-31T11:44:37.495Z,27.45
2022-07-31T11:48:10.274Z,27.22
2022-07-31T11:50:02.149Z,26.90
2022-07-31T11:52:30.859Z,26.97
2022-07-31T11:55:08.883Z,26.33
2022-07-31T11:57:51.605Z,25.79
2022-07-31T12:00:28.809Z,25.67
2022-07-31T12:02:58.638Z,25.64
2022-07-31T12:05:38.161Z,26.37
2022-07-31T12:08:07.844Z,25.40
2022-07-31T12:10:36.214Z,26.58
2022-07-31T12:13:04.038Z,26.15
2022-07-31T12:15:33.068Z,26.38
2022-07-31T12:18:02.328Z,26.19
2022-07-31T12:20:35.879Z,25.77
2022-07-31T12:23:05.632Z,25.60
2022-07-31T12:25:45.538Z,25.72
2022-07-31T12:28:14.844Z,25.11
2022-07-31T12:30:44.703Z,25.18
2022-07-31T12:33:14.157Z,24.64
2022-07-31T12:35:56.392Z,25.19
2022-07-31T12:38:44.994Z,25.05
2022-07-31T12:41:14.494Z,24.92
2022-07-31T12:43:51.005Z,24.48
2022-07-31T12:46:22.913Z,25.11
2022-07-31T12:48:51.083Z,24.92
2022-07-31T12:51:45.818Z,25.20
2022-07-31T12:54:09.152Z,25.10
2022-07-31T12:56:37.059Z,25.84
2022-07-31T12:59:05.619Z,26.12
2022-07-31T13:01:35.533Z,25.59
2022-07-31T13:04:04.734Z,25.95
2022-07-31T13:06:36.152Z,24.84
2022-07-31T13:09:04.769Z,25.13
2022-07-31T13:11:46.548Z,25.97
2022-07-31T13:14:16.189Z,25.81
2022-07-31T13:16:45.368Z,26.23
2022-07-31T13:19:13.976Z,26.28
2022-07-31T13:21:49.143Z,26.43
2022-07-31T13:24:17.575Z,26.20
2022-07-31T13:26:45.744Z,27.02
2022-07-31T13:29:14.003Z,26.38
2022-07-31T13:31:41.983Z,25.88
2022-07-31T13:34:11.079Z,25.01
2022-07-31T13:36:39.790Z,25.02
2022-07-31T13:39:08.174Z,23.67
2022-07-31T13:41:36.093Z,24.33
2022-07-31T13:44:06.631Z,24.34
2022-07-31T13:46:34.388Z,24.25
2022-07-31T13:49:04.003Z,24.85
2022-07-31T13:51:33.031Z,25.34
2022-07-31T13:54:00.805Z,25.19
2022-07-31T13:56:38.782Z,25.03
2022-07-31T13:59:12.534Z,24.78
2022-07-31T14:02:12.984Z,23.65
2022-07-31T14:04:31.282Z,23.92
2022-07-31T14:07:04.352Z,23.74
2022-07-31T14:09:34.219Z,23.52
2022-07-31T14:12:03.675Z,22.46
2022-07-31T14:14:32.729Z,23.55
2022-07-31T14:17:00.532Z,22.92
2022-07-31T14:19:28.328Z,23.69
2022-07-31T14:21:57.363Z,23.75
2022-07-31T14:24:27.013Z,23.82
2022-07-31T14:26:54.661Z,23.31
2022-07-31T14:29:22.411Z,24.21
2022-07-31T14:31:50.282Z,23.65
2022-07-31T14:34:18.151Z,23.24
2022-07-31T14:36:45.783Z,23.38
2022-07-31T14:39:13.692Z,24.14
2022-07-31T14:41:42.911Z,23.88
2022-07-31T14:44:11.878Z,23.99
2022-07-31T14:46:39.412Z,23.03
2022-07-31T14:49:08.584Z,23.76
2022-07-31T14:51:36.369Z,22.98
2022-07-31T14:54:04.112Z,22.84
2022-07-31T14:56:59.800Z,23.24
2022-07-31T14:59:21.440Z,23.54
2022-07-31T15:01:49.079Z,24.05
2022-07-31T15:04:16.854Z,24.21
2022-07-31T15:06:56.109Z,24.22
2022-07-31T15:09:27.340Z,23.81
2022-07-31T15:11:59.643Z,23.79
2022-07-31T15:14:30.630Z,23.92
2022-07-31T15:16:58.352Z,23.93
2022-07-31T15:19:26.029Z,23.44
2022-07-31T15:22:09.515Z,23.53
2022-07-31T15:24:49.282Z,24.13
2022-07-31T15:27:18.060Z,24.36
2022-07-31T15:30:04.507Z,24.12
2022-07-31T15:32:35.275Z,24.11
2022-07-31T15:35:03.381Z,23.57
2022-07-31T15:37:31.081Z,23.09
2022-07-31T15:40:01.999Z,23.08
2022-07-31T15:42:31.189Z,22.75
2022-07-31T15:45:00.306Z,23.20
2022-07-31T15:47:28.000Z,22.55
2022-07-31T15:49:55.606Z,22.88
2022-07-31T15:52:23.222Z,23.71
2022-07-31T15:54:52.550Z,24.57
2022-07-31T15:57:20.946Z,24.72
2022-07-31T15:59:49.074Z,25.15
2022-07-31T16:02:18.299Z,25.25
2022-07-31T16:04:53.063Z,24.94
2022-07-31T16:08:30.359Z,24.58
2022-07-31T16:10:15.477Z,24.70
2022-07-31T16:12:43.914Z,25.18
2022-07-31T16:15:12.380Z,25.41
2022-07-31T16:17:42.042Z,25.91
2022-07-31T16:20:12.320Z,25.55
2022-07-31T16:22:42.393Z,25.57
2022-07-31T16:25:11.738Z,25.69
2022-07-31T16:27:40.536Z,25.24
2022-07-31T16:30:09.443Z,25.65
2022-07-31T16:32:37.395Z,26.14
2022-07-31T16:35:07.749Z,25.96
2022-07-31T16:37:50.953Z,26.16
2022-07-31T16:40:29.708Z,26.61
2022-07-31T16:43:00.709Z,26.55
2022-07-31T16:45:28.890Z,26.40
2022-07-31T16:47:56.695Z,26.70
2022-07-31T16:50:26.438Z,26.81
2022-07-31T16:52:55.121Z,26.89
2022-07-31T16:55:59.553Z,27.19
2022-07-31T16:58:12.645Z,26.82
2022-07-31T17:00:41.221Z,27.61
2022-07-31T17:03:58.927Z,27.64
2022-07-31T17:05:58.305Z,27.71
2022-07-31T17:08:26.076Z,27.65
2022-07-31T17:10:54.806Z,27.46
2022-07-31T17:13:23.034Z,27.53
2022-07-31T17:15:50.800Z,27.51
2022-07-31T17:18:18.784Z,27.33
2022-07-31T17:20:47.827Z,27.93
2022-07-31T17:23:18.127Z,27.39
2022-07-31T17:26:06.070Z,27.07
2022-07-31T17:28:34.167Z,27.40
2022-07-31T17:31:03.738Z,27.40
2022-07-31T17:33:58.525Z,27.69
2022-07-31T17:36:19.786Z,27.85
2022-07-31T17:38:48.797Z,28.25
2022-07-31T17:41:24.948Z,28.03
2022-07-31T17:43:54.056Z,28.05
2022-07-31T17:46:34.781Z,28.15
2022-07-31T17:49:05.874Z,28.14
2022-07-31T17:51:34.297Z,28.27
2022-07-31T17:54:04.216Z,28.55
2022-07-31T17:56:31.937Z,28.52
2022-07-31T17:59:04.659Z,28.61
2022-07-31T18:01:33.746Z,28.81
2022-07-31T18:04:01.847Z,28.99
2022-07-31T18:06:29.758Z,29.10
2022-07-31T18:08:57.641Z,28.76
2022-07-31T18:11:27.134Z,28.93
2022-07-31T18:13:55.461Z,29.36
2022-07-31T18:16:24.669Z,29.34
2022-07-31T18:18:54.665Z,29.71
2022-07-31T18:21:22.915Z,29.79
2022-07-31T18:23:50.547Z,29.99
2022-07-31T18:26:18.518Z,30.33
2022-07-31T18:28:47.644Z,30.49
2022-07-31T18:31:31.707Z,30.54
2022-07-31T18:34:00.532Z,30.87
2022-07-31T18:36:28.287Z,31.24
2022-07-31T18:38:56.040Z,31.57
2022-07-31T18:41:23.908Z,31.88
2022-07-31T18:43:52.940Z,31.91
2022-07-31T18:46:21.049Z,32.18
2022-07-31T18:48:54.538Z,32.28
2022-07-31T18:51:23.916Z,32.44
2022-07-31T18:53:54.628Z,32.53
2022-07-31T18:56:23.311Z,33.16
2022-07-31T18:58:51.230Z,33.35
2022-07-31T19:01:20.942Z,33.41
2022-07-31T19:03:49.772Z,34.03
2022-07-31T19:06:18.802Z,33.83
2022-07-31T19:08:49.374Z,34.43
2022-07-31T19:11:17.426Z,34.11
2022-07-31T19:13:45.615Z,34.87
2022-07-31T19:16:15.032Z,34.75
2022-07-31T19:18:50.173Z,34.87
2022-07-31T19:21:38.510Z,35.65
2022-07-31T19:24:08.122Z,35.66
2022-07-31T19:26:36.291Z,35.94
2022-07-31T19:29:04.393Z,36.22
2022-07-31T19:31:32.496Z,36.35
2022-07-31T19:34:01.792Z,36.42
2022-07-31T19:36:29.959Z,36.81
2022-07-31T19:38:58.033Z,37.08
2022-07-31T19:41:25.819Z,36.89
2022-07-31T19:43:53.699Z,36.96
2022-07-31T19:46:21.503Z,37.21
2022-07-31T19:48:49.969Z,37.86
2022-07-31T19:51:19.281Z,37.60
2022-07-31T19:53:46.954Z,37.96
2022-07-31T19:56:20.425Z,38.00
2022-07-31T19:58:48.767Z,38.32
2022-07-31T20:01:19.888Z,38.32
2022-07-31T20:03:47.969Z,38.47
2022-07-31T20:06:16.204Z,38.48
2022-07-31T20:08:45.327Z,38.73
2022-07-31T20:11:13.398Z,39.29
2022-07-31T20:13:41.379Z,39.32
2022-07-31T20:16:09.367Z,39.72
2022-07-31T20:18:37.085Z,39.37
2022-07-31T20:21:07.769Z,39.75
2022-07-31T20:23:38.273Z,39.95
2022-07-31T20:26:08.353Z,39.74
2022-07-31T20:28:36.724Z,40.37
2022-07-31T20:31:04.600Z,40.77
2022-07-31T20:33:32.376Z,40.92
2022-07-31T20:36:00.023Z,41.12
2022-07-31T20:38:27.659Z,41.21
2022-07-31T20:40:56.234Z,41.53
2022-07-31T20:43:27.345Z,41.76
2022-07-31T20:45:57.290Z,42.05
2022-07-31T20:48:31.106Z,42.29
2022-07-31T20:50:59.925Z,42.76
2022-07-31T20:53:27.711Z,42.96
2022-07-31T20:55:55.590Z,42.77
2022-07-31T20:58:26.143Z,42.87
2022-07-31T21:00:54.790Z,43.34
2022-07-31T21:03:22.579Z,43.79
2022-07-31T21:05:50.671Z,44.04
2022-07-31T21:08:18.692Z,44.22
2022-07-31T21:10:46.740Z,44.42
2022-07-31T21:13:14.691Z,44.48
2022-07-31T21:15:45.322Z,44.96
2022-07-31T21:18:13.880Z,45.40
2022-07-31T21:20:52.515Z,45.69
2022-07-31T21:23:22.385Z,46.05
2022-07-31T21:25:50.595Z,46.23
2022-07-31T21:28:18.904Z,46.54
2022-07-31T21:30:48.364Z,46.73
2022-07-31T21:33:16.313Z,47.08
2022-07-31T21:35:44.900Z,47.41
2022-07-31T21:38:15.133Z,46.96
2022-07-31T21:40:43.157Z,47.45
2022-07-31T21:43:11.890Z,47.51
2022-07-31T21:45:50.614Z,47.46
2022-07-31T21:48:28.249Z,47.63
2022-07-31T21:50:56.041Z,47.88
2022-07-31T21:53:24.538Z,47.63
2022-07-31T21:55:52.751Z,47.77
2022-07-31T21:58:20.525Z,48.04
2022-07-31T22:00:48.383Z,48.47
2022-07-31T22:03:16.689Z,48.67
2022-07-31T22:06:03.128Z,48.99
2022-07-31T22:08:30.829Z,49.28
2022-07-31T22:10:58.708Z,49.53
2022-07-31T22:13:26.552Z,49.72
2022-07-31T22:15:59.839Z,49.72
2022-07-31T22:18:29.878Z,49.69
2022-07-31T22:20:59.401Z,49.61
2022-07-31T22:23:28.473Z,49.61
2022-07-31T22:25:57.078Z,49.51
2022-07-31T22:28:27.096Z,49.57
2022-07-31T22:30:55.707Z,49.72
2022-07-31T22:33:23.851Z,49.82
2022-07-31T22:35:58.943Z,50.03
2022-07-31T22:38:30.807Z,50.53
2022-07-31T22:40:59.483Z,50.41
2022-07-31T22:44:10.074Z,50.65
2022-07-31T22:46:16.142Z,50.72
2022-07-31T22:48:45.889Z,50.84
2022-07-31T22:51:14.916Z,50.74
2022-07-31T22:53:45.551Z,51.10
2022-07-31T22:56:17.012Z,51.23
2022-07-31T22:58:44.687Z,51.55
2022-07-31T23:01:12.507Z,51.70
2022-07-31T23:03:40.116Z,51.96
2022-07-31T23:06:31.106Z,52.24
2022-07-31T23:08:57.238Z,52.58
2022-07-31T23:11:25.408Z,52.06
2022-07-31T23:13:53.503Z,52.36
2022-07-31T23:16:22.160Z,52.66
2022-07-31T23:18:49.863Z,52.79
2022-07-31T23:21:18.542Z,52.83
2022-07-31T23:23:48.775Z,53.38
2022-07-31T23:26:19.175Z,53.30
2022-07-31T23:28:47.253Z,53.76
2022-07-31T23:31:15.016Z,54.20
2022-07-31T23:33:43.442Z,54.10
2022-07-31T23:36:11.148Z,54.78
2022-07-31T23:38:38.911Z,55.57
2022-07-31T23:41:06.575Z,56.50
2022-07-31T23:43:34.618Z,56.89
2022-07-31T23:46:02.672Z,57.17
2022-07-31T23:48:31.440Z,57.31
2022-07-31T23:50:59.398Z,57.58
2022-07-31T23:53:27.067Z,58.14
2022-07-31T23:55:54.803Z,57.87
2022-07-31T23:58:22.523Z,58.14
